»·PEaware :: N198ME KSNA-KCRQ

N198ME :: KSNA-KCRQ

FLIGHT INFORMATION

Flight Status: Arrived
Operator: Privately registered:
United States
More flights under this callsign
Pilot: Juan S. (26712)
Aircraft: CESSNA 172 SKYHAWK
(C172)
More flights by this aircraft type
Origin: KSNA John Wayne-Orange Co
United States
Destination: KCRQ McClellan-Palomar
United States
More flights between these airports :: More routes between these airports
Route: +V23 OCN
File this flight plan on PilotEdge
Remarks: I2 Rating
Altitude:
(Current/Filed)
500ft
Speed:
(Current/Filed)
110kts
Departed: 29-Nov-19 09:05 PM
Arrived: 29-Nov-19 09:47 PM
Distance/Time
Traveled:
44nm/0:42
Distance/Time
To Go:
Arrived

Flight Plot

Page will automatically refresh every two minutes.


Map Options




Map Legend


Flown Route
Filed Route
Departure Airport
Arrival Airport
Navaid (VOR, NDB)
Fix

Horizontal Profiles

Position Reports

Time Latitude Longitude Heading Altitude Ground
Speed
29-Nov-19 20:47 33.674107 -117.865557 117 60ft 0kts
29-Nov-19 20:48 33.674107 -117.865557 117 60ft 0kts
29-Nov-19 20:49 33.674107 -117.865557 117 60ft 0kts
29-Nov-19 20:50 33.674107 -117.865557 117 60ft 0kts
29-Nov-19 20:51 33.674107 -117.865557 117 60ft 0kts
29-Nov-19 20:52 33.674107 -117.865557 117 60ft 0kts
29-Nov-19 20:53 33.674107 -117.865557 117 60ft 0kts
29-Nov-19 20:53 33.674107 -117.865557 117 60ft 0kts
29-Nov-19 20:55 33.674107 -117.865557 117 60ft 0kts
29-Nov-19 20:56 33.674107 -117.865557 117 60ft 0kts
29-Nov-19 20:56 33.674107 -117.865557 117 60ft 0kts
29-Nov-19 20:58 33.674061 -117.865493 148 60ft 3kts
29-Nov-19 20:59 33.673761 -117.867168 316 60ft 5kts
29-Nov-19 20:59 33.676284 -117.865698 27 60ft 20kts
29-Nov-19 21:00 33.679947 -117.863665 312 60ft 0kts
29-Nov-19 21:02 33.679948 -117.863666 312 60ft 0kts
29-Nov-19 21:02 33.679948 -117.863667 311 60ft 0kts
29-Nov-19 21:03 33.679732 -117.864421 208 60ft 15kts
29-Nov-19 21:04 33.662458 -117.874699 186 860ft 77kts
29-Nov-19 21:05 33.641143 -117.878050 186 1934ft 78kts
29-Nov-19 21:06 33.619916 -117.881394 186 2951ft 77kts
29-Nov-19 21:07 33.598992 -117.884918 186 3906ft 76kts
29-Nov-19 21:08 33.578174 -117.887620 184 4799ft 75kts
29-Nov-19 21:09 33.554215 -117.889305 167 5078ft 93kts
29-Nov-19 21:10 33.541103 -117.859131 112 5007ft 113kts
29-Nov-19 21:11 33.532374 -117.822751 113 4939ft 112kts
29-Nov-19 21:12 33.521541 -117.788185 116 4935ft 108kts
29-Nov-19 21:13 33.512767 -117.753242 116 4983ft 108kts
29-Nov-19 21:14 33.502036 -117.719841 127 5009ft 105kts
29-Nov-19 21:15 33.483660 -117.693736 136 5041ft 102kts
29-Nov-19 21:16 33.461944 -117.671729 137 4950ft 111kts
29-Nov-19 21:17 33.435610 -117.651131 142 5112ft 118kts
29-Nov-19 21:18 33.408521 -117.625770 126 5026ft 123kts
29-Nov-19 21:19 33.385025 -117.595641 133 4974ft 124kts
29-Nov-19 21:20 33.359284 -117.568039 121 4943ft 123kts
29-Nov-19 21:21 33.338474 -117.535648 131 4992ft 124kts
29-Nov-19 21:22 33.313463 -117.507085 129 5015ft 124kts
29-Nov-19 21:23 33.289866 -117.477700 130 4985ft 122kts
29-Nov-19 21:24 33.266022 -117.448359 129 4937ft 122kts
29-Nov-19 21:25 33.241833 -117.420621 130 4990ft 118kts
29-Nov-19 21:26 33.219991 -117.391571 107 5000ft 114kts
29-Nov-19 21:27 33.220433 -117.355040 81 4957ft 109kts
29-Nov-19 21:28 33.220910 -117.318521 83 4935ft 110kts
29-Nov-19 21:29 33.220351 -117.282621 86 4976ft 108kts
29-Nov-19 21:30 33.219629 -117.246862 83 5004ft 107kts
29-Nov-19 21:31 33.219408 -117.211001 83 4993ft 109kts
29-Nov-19 21:32 33.220335 -117.174482 81 4946ft 109kts
29-Nov-19 21:33 33.220703 -117.138022 81 4956ft 109kts
29-Nov-19 21:34 33.220939 -117.101605 81 4979ft 109kts
29-Nov-19 21:35 33.220586 -117.065140 84 5001ft 110kts
29-Nov-19 21:36 33.221534 -117.028615 81 4992ft 110kts
29-Nov-19 21:37 33.202850 -117.000914 160 4855ft 120kts
29-Nov-19 21:38 33.170587 -117.008859 218 4617ft 125kts
29-Nov-19 21:39 33.156610 -117.044203 264 4082ft 118kts
29-Nov-19 21:40 33.154677 -117.082146 272 3474ft 109kts
29-Nov-19 21:41 33.152342 -117.117780 268 3405ft 108kts
29-Nov-19 21:42 33.149567 -117.154431 260 2635ft 114kts
29-Nov-19 21:43 33.143128 -117.190057 259 1754ft 98kts
29-Nov-19 21:44 33.138882 -117.220879 256 1319ft 94kts
29-Nov-19 21:45 33.132379 -117.251635 256 761ft 96kts
29-Nov-19 21:46 33.128733 -117.276877 261 335ft 34kts
29-Nov-19 21:47 33.129016 -117.280252 310 335ft 0kts
29-Nov-19 21:48 33.129426 -117.280370 10 335ft 0kts

Navigation Log

Ident Type
Flight plan parsing failed, navigation log unavailable